EXS79NX EGBB-LGKR
Flight info
| Callsign | EXS79NX |
|---|---|
| Flight time | 2h 56m |
| Altitude | 37000 |
| Route | ADMEX DCT COWLY Q70 BIG UL9 KONAN DCT KOK DCT SISGA DCT RITAX DCT KRH DCT UTABA DCT BEMKI DCT ELMEM DCT DIRAB DCT UPIRO DCT BABAG DCT PEVAL DCT IPKIS DCT AIOSA DCT ENOXA DCT KAPPO DCT TIGRA |
| Aircraft | B738/M-SDE2E3FGHIRWXY/LB1 |
Departure
| Time | 2026-04-28 08:49 |
|---|---|
| Airport | Birmingham Airport (EGBB) |
Arrival
| Time | 2026-04-28 11:46 |
|---|---|
| Airport | Corfu Ioannis Kapodistrias International Airport (LGKR) |
| Time | Latitude | Longitude | Altitude | Speed | Heading |
|---|---|---|---|---|---|
| 2026-04-28 08:26 | 52.44971 | -1.73477 | 320 ft | 0 kts | 356° |
| 2026-04-28 08:44 | 52.44967 | -1.73476 | 322 ft | 3 kts | 356° |
| 2026-04-28 08:44 | 52.44946 | -1.73472 | 321 ft | 4 kts | 335° |
| 2026-04-28 08:44 | 52.44932 | -1.73448 | 322 ft | 4 kts | 265° |
| 2026-04-28 08:45 | 52.44937 | -1.73421 | 319 ft | 3 kts | 236° |
| 2026-04-28 08:45 | 52.44923 | -1.73454 | 322 ft | 1 kts | 236° |
| 2026-04-28 08:45 | 52.44923 | -1.73455 | 319 ft | 0 kts | 236° |
| 2026-04-28 08:47 | 52.44921 | -1.73459 | 320 ft | 2 kts | 236° |
| 2026-04-28 08:47 | 52.44905 | -1.73499 | 322 ft | 7 kts | 238° |
| 2026-04-28 08:47 | 52.44880 | -1.73600 | 322 ft | 12 kts | 235° |
| 2026-04-28 08:47 | 52.44798 | -1.73697 | 321 ft | 18 kts | 197° |
| 2026-04-28 08:48 | 52.44707 | -1.73806 | 322 ft | 16 kts | 237° |
| 2026-04-28 08:48 | 52.44649 | -1.73945 | 323 ft | 9 kts | 238° |
| 2026-04-28 08:48 | 52.44682 | -1.74021 | 324 ft | 13 kts | 326° |
| 2026-04-28 08:48 | 52.44921 | -1.74285 | 326 ft | 75 kts | 326° |
| 2026-04-28 08:49 | 52.45533 | -1.74967 | 322 ft | 135 kts | 326° |
| 2026-04-28 08:49 | 52.46429 | -1.75969 | 480 ft | 166 kts | 332° |
| 2026-04-28 08:49 | 52.47363 | -1.77004 | 1292 ft | 162 kts | 332° |
| 2026-04-28 08:49 | 52.48310 | -1.78062 | 1838 ft | 176 kts | 333° |
| 2026-04-28 08:50 | 52.49424 | -1.79252 | 2159 ft | 200 kts | 339° |
| 2026-04-28 08:50 | 52.50750 | -1.79838 | 2656 ft | 198 kts | 5° |
| 2026-04-28 08:50 | 52.52091 | -1.79383 | 3211 ft | 201 kts | 30° |
| 2026-04-28 08:50 | 52.53198 | -1.77986 | 3882 ft | 203 kts | 52° |
| 2026-04-28 08:51 | 52.53829 | -1.75932 | 4653 ft | 204 kts | 77° |
| 2026-04-28 08:51 | 52.53845 | -1.73627 | 5427 ft | 208 kts | 96° |
| 2026-04-28 08:51 | 52.53556 | -1.71274 | 6170 ft | 212 kts | 98° |
| 2026-04-28 08:51 | 52.53223 | -1.68891 | 6927 ft | 215 kts | 101° |
| 2026-04-28 08:52 | 52.52516 | -1.66627 | 7447 ft | 237 kts | 118° |
| 2026-04-28 08:52 | 52.51370 | -1.64461 | 7790 ft | 262 kts | 129° |
| 2026-04-28 08:52 | 52.50035 | -1.62347 | 8468 ft | 269 kts | 130° |
| 2026-04-28 08:52 | 52.48677 | -1.60207 | 9280 ft | 271 kts | 129° |
| 2026-04-28 08:53 | 52.47314 | -1.58033 | 10088 ft | 273 kts | 129° |
| 2026-04-28 08:53 | 52.45942 | -1.55892 | 10720 ft | 283 kts | 134° |
| 2026-04-28 08:53 | 52.44219 | -1.53985 | 10897 ft | 312 kts | 143° |
| 2026-04-28 08:53 | 52.42265 | -1.52155 | 11199 ft | 330 kts | 144° |
| 2026-04-28 08:54 | 52.40137 | -1.50529 | 11776 ft | 342 kts | 153° |
| 2026-04-28 08:54 | 52.37884 | -1.49201 | 12517 ft | 346 kts | 155° |
| 2026-04-28 08:54 | 52.35576 | -1.47946 | 13264 ft | 350 kts | 156° |
| 2026-04-28 08:54 | 52.33250 | -1.46695 | 14032 ft | 353 kts | 155° |
| 2026-04-28 08:55 | 52.30906 | -1.45418 | 14720 ft | 357 kts | 155° |
| 2026-04-28 08:55 | 52.28576 | -1.44130 | 15407 ft | 360 kts | 155° |
| 2026-04-28 08:55 | 52.26190 | -1.42794 | 16137 ft | 364 kts | 155° |
| 2026-04-28 08:55 | 52.23789 | -1.41440 | 16849 ft | 367 kts | 154° |
| 2026-04-28 08:56 | 52.21359 | -1.40062 | 17551 ft | 371 kts | 154° |
| 2026-04-28 08:56 | 52.18903 | -1.38667 | 18247 ft | 374 kts | 153° |
| 2026-04-28 08:56 | 52.16435 | -1.37264 | 18896 ft | 378 kts | 153° |
| 2026-04-28 08:56 | 52.13936 | -1.35845 | 19497 ft | 382 kts | 153° |
| 2026-04-28 08:57 | 52.11419 | -1.34416 | 20109 ft | 385 kts | 153° |
| 2026-04-28 08:57 | 52.08873 | -1.32974 | 20702 ft | 388 kts | 153° |
| 2026-04-28 08:57 | 52.06337 | -1.31538 | 21273 ft | 392 kts | 153° |
| 2026-04-28 08:57 | 52.03751 | -1.30076 | 21876 ft | 395 kts | 153° |
| 2026-04-28 08:58 | 52.01147 | -1.28606 | 22445 ft | 398 kts | 153° |
| 2026-04-28 08:58 | 51.98523 | -1.27125 | 23019 ft | 401 kts | 153° |
| 2026-04-28 08:58 | 51.96097 | -1.25086 | 23574 ft | 385 kts | 132° |
| 2026-04-28 08:58 | 51.94429 | -1.21843 | 24163 ft | 369 kts | 113° |
| 2026-04-28 08:59 | 51.93399 | -1.18094 | 24659 ft | 362 kts | 103° |
| 2026-04-28 08:59 | 51.92610 | -1.14208 | 25111 ft | 364 kts | 101° |
| 2026-04-28 08:59 | 51.91851 | -1.10284 | 25546 ft | 366 kts | 101° |
| 2026-04-28 08:59 | 51.91089 | -1.06315 | 26012 ft | 368 kts | 101° |
| 2026-04-28 09:00 | 51.90320 | -1.02345 | 26470 ft | 371 kts | 101° |
| 2026-04-28 09:00 | 51.89538 | -0.98357 | 26920 ft | 373 kts | 101° |
| 2026-04-28 09:00 | 51.88743 | -0.94342 | 27309 ft | 377 kts | 102° |
| 2026-04-28 09:00 | 51.87942 | -0.90325 | 27618 ft | 382 kts | 102° |
| 2026-04-28 09:01 | 51.87117 | -0.86225 | 28038 ft | 384 kts | 102° |
| 2026-04-28 09:01 | 51.86284 | -0.82104 | 28479 ft | 385 kts | 102° |
| 2026-04-28 09:01 | 51.85446 | -0.77976 | 28893 ft | 388 kts | 102° |
| 2026-04-28 09:01 | 51.84875 | -0.75170 | 29138 ft | 389 kts | 102° |
| 2026-04-28 09:02 | 51.83745 | -0.69623 | 29623 ft | 393 kts | 102° |
| 2026-04-28 09:02 | 51.82886 | -0.65421 | 29998 ft | 395 kts | 102° |
| 2026-04-28 09:02 | 51.82022 | -0.61198 | 30354 ft | 397 kts | 101° |
| 2026-04-28 09:02 | 51.81148 | -0.56939 | 30627 ft | 400 kts | 102° |
| 2026-04-28 09:03 | 51.80267 | -0.52653 | 30821 ft | 406 kts | 103° |
| 2026-04-28 09:03 | 51.78447 | -0.43817 | 31084 ft | 418 kts | 103° |
| 2026-04-28 09:03 | 51.77536 | -0.39423 | 31357 ft | 419 kts | 104° |
| 2026-04-28 09:04 | 51.76606 | -0.34946 | 31735 ft | 421 kts | 104° |
| 2026-04-28 09:04 | 51.75670 | -0.30454 | 32009 ft | 423 kts | 104° |
| 2026-04-28 09:04 | 51.74720 | -0.25898 | 32345 ft | 423 kts | 104° |
| 2026-04-28 09:04 | 51.73790 | -0.21454 | 32645 ft | 424 kts | 104° |
| 2026-04-28 09:05 | 51.72844 | -0.16935 | 32921 ft | 425 kts | 104° |
| 2026-04-28 09:05 | 51.71894 | -0.12408 | 33200 ft | 426 kts | 104° |
| 2026-04-28 09:05 | 51.70941 | -0.07876 | 33496 ft | 427 kts | 105° |
| 2026-04-28 09:05 | 51.69985 | -0.03340 | 33773 ft | 427 kts | 105° |
| 2026-04-28 09:06 | 51.69352 | -0.00342 | 33951 ft | 428 kts | 105° |
| 2026-04-28 09:06 | 51.67412 | 0.08823 | 34245 ft | 434 kts | 106° |
| 2026-04-28 09:06 | 51.66435 | 0.13419 | 34533 ft | 433 kts | 106° |
| 2026-04-28 09:07 | 51.65456 | 0.18014 | 34824 ft | 433 kts | 106° |
| 2026-04-28 09:07 | 51.64477 | 0.22599 | 35050 ft | 434 kts | 106° |
| 2026-04-28 09:07 | 51.63493 | 0.27200 | 35250 ft | 435 kts | 106° |
| 2026-04-28 09:07 | 51.62504 | 0.31812 | 35484 ft | 435 kts | 106° |
| 2026-04-28 09:08 | 51.61514 | 0.36418 | 35718 ft | 435 kts | 106° |
| 2026-04-28 09:08 | 51.60535 | 0.40963 | 35942 ft | 435 kts | 106° |
| 2026-04-28 09:08 | 51.59540 | 0.45570 | 36149 ft | 436 kts | 107° |
| 2026-04-28 09:08 | 51.58545 | 0.50173 | 36373 ft | 437 kts | 107° |
| 2026-04-28 09:09 | 51.57544 | 0.54786 | 36589 ft | 437 kts | 107° |
| 2026-04-28 09:09 | 51.56541 | 0.59402 | 36794 ft | 438 kts | 107° |
| 2026-04-28 09:09 | 51.55532 | 0.64035 | 36919 ft | 440 kts | 107° |
| 2026-04-28 09:09 | 51.54523 | 0.68657 | 37236 ft | 438 kts | 107° |
| 2026-04-28 09:10 | 51.53509 | 0.73292 | 37272 ft | 442 kts | 107° |
| 2026-04-28 09:10 | 51.51458 | 0.82636 | 37290 ft | 444 kts | 107° |
| 2026-04-28 09:11 | 51.49406 | 0.91932 | 37283 ft | 438 kts | 107° |
| 2026-04-28 09:11 | 51.47370 | 1.01122 | 37298 ft | 436 kts | 107° |
| 2026-04-28 09:12 | 51.45334 | 1.10276 | 37287 ft | 435 kts | 108° |
| 2026-04-28 09:12 | 51.43304 | 1.19361 | 37285 ft | 435 kts | 107° |
| 2026-04-28 09:13 | 51.41257 | 1.28483 | 37273 ft | 435 kts | 108° |
| 2026-04-28 09:13 | 51.39203 | 1.37593 | 37280 ft | 434 kts | 107° |
| 2026-04-28 09:14 | 51.37140 | 1.46709 | 37272 ft | 436 kts | 108° |
| 2026-04-28 09:14 | 51.35067 | 1.55826 | 37279 ft | 436 kts | 108° |
| 2026-04-28 09:15 | 51.32980 | 1.64964 | 37264 ft | 438 kts | 108° |
| 2026-04-28 09:15 | 51.30892 | 1.74073 | 37247 ft | 440 kts | 109° |
| 2026-04-28 09:16 | 51.28771 | 1.83280 | 37259 ft | 442 kts | 109° |
| 2026-04-28 09:16 | 51.26633 | 1.92521 | 37249 ft | 445 kts | 109° |
| 2026-04-28 09:17 | 51.24478 | 2.01799 | 37249 ft | 447 kts | 109° |
| 2026-04-28 09:17 | 51.22303 | 2.11116 | 37241 ft | 448 kts | 110° |
| 2026-04-28 09:18 | 51.20116 | 2.20448 | 37244 ft | 449 kts | 110° |
| 2026-04-28 09:18 | 51.17918 | 2.29788 | 37230 ft | 449 kts | 110° |
| 2026-04-28 09:19 | 51.15717 | 2.39100 | 37231 ft | 448 kts | 110° |
| 2026-04-28 09:19 | 51.13530 | 2.48316 | 37220 ft | 447 kts | 110° |
| 2026-04-28 09:20 | 51.11321 | 2.57590 | 37222 ft | 446 kts | 110° |
| 2026-04-28 09:20 | 51.09061 | 2.66783 | 37209 ft | 445 kts | 115° |
| 2026-04-28 09:21 | 51.06248 | 2.75471 | 37215 ft | 444 kts | 118° |
| 2026-04-28 09:21 | 51.03286 | 2.84110 | 37227 ft | 444 kts | 118° |
| 2026-04-28 09:22 | 51.00360 | 2.92738 | 37225 ft | 443 kts | 118° |
| 2026-04-28 09:22 | 50.97458 | 3.01383 | 37219 ft | 443 kts | 118° |
| 2026-04-28 09:23 | 50.94557 | 3.10034 | 37214 ft | 444 kts | 118° |
| 2026-04-28 09:23 | 50.91651 | 3.18674 | 37198 ft | 444 kts | 118° |
| 2026-04-28 09:24 | 50.88751 | 3.27262 | 37190 ft | 445 kts | 118° |
| 2026-04-28 09:24 | 50.85823 | 3.35901 | 37190 ft | 446 kts | 118° |
| 2026-04-28 09:25 | 50.82882 | 3.44548 | 37189 ft | 446 kts | 118° |
| 2026-04-28 09:25 | 50.79925 | 3.53213 | 37179 ft | 448 kts | 118° |
| 2026-04-28 09:26 | 50.76957 | 3.61882 | 37196 ft | 449 kts | 119° |
| 2026-04-28 09:26 | 50.73972 | 3.70568 | 37190 ft | 450 kts | 119° |
| 2026-04-28 09:27 | 50.69474 | 3.83604 | 37187 ft | 451 kts | 119° |
| 2026-04-28 09:27 | 50.66482 | 3.92241 | 37184 ft | 452 kts | 119° |
| 2026-04-28 09:28 | 50.63457 | 4.00944 | 37190 ft | 453 kts | 119° |
| 2026-04-28 09:28 | 50.60506 | 4.09715 | 37173 ft | 453 kts | 116° |
| 2026-04-28 09:29 | 50.57822 | 4.18708 | 37185 ft | 453 kts | 115° |
| 2026-04-28 09:29 | 50.55197 | 4.27660 | 37173 ft | 453 kts | 115° |
| 2026-04-28 09:30 | 50.52518 | 4.36658 | 37183 ft | 454 kts | 116° |
| 2026-04-28 09:30 | 50.49809 | 4.45644 | 37185 ft | 454 kts | 116° |
| 2026-04-28 09:31 | 50.47089 | 4.54611 | 37189 ft | 455 kts | 116° |
| 2026-04-28 09:31 | 50.44358 | 4.63585 | 37173 ft | 456 kts | 116° |
| 2026-04-28 09:32 | 50.41634 | 4.72501 | 37164 ft | 456 kts | 116° |
| 2026-04-28 09:32 | 50.38886 | 4.81470 | 37150 ft | 456 kts | 116° |
| 2026-04-28 09:33 | 50.36127 | 4.90437 | 37154 ft | 456 kts | 116° |
| 2026-04-28 09:33 | 50.33363 | 4.99389 | 37144 ft | 456 kts | 116° |
| 2026-04-28 09:34 | 50.30595 | 5.08325 | 37121 ft | 456 kts | 116° |
| 2026-04-28 09:34 | 50.27835 | 5.17199 | 37143 ft | 456 kts | 117° |
| 2026-04-28 09:35 | 50.25049 | 5.26127 | 37136 ft | 457 kts | 117° |
| 2026-04-28 09:35 | 50.22253 | 5.35051 | 37132 ft | 457 kts | 117° |
| 2026-04-28 09:36 | 50.19445 | 5.43984 | 37110 ft | 458 kts | 117° |
| 2026-04-28 09:36 | 50.16629 | 5.52912 | 37120 ft | 459 kts | 117° |
| 2026-04-28 09:37 | 50.13796 | 5.61860 | 37114 ft | 460 kts | 117° |
| 2026-04-28 09:37 | 50.10957 | 5.70797 | 37124 ft | 460 kts | 117° |
| 2026-04-28 09:38 | 50.08105 | 5.79742 | 37099 ft | 461 kts | 117° |
| 2026-04-28 09:38 | 50.05053 | 5.88430 | 37117 ft | 460 kts | 121° |
| 2026-04-28 09:39 | 50.01798 | 5.97024 | 37102 ft | 460 kts | 122° |
| 2026-04-28 09:39 | 49.98542 | 6.05601 | 37103 ft | 461 kts | 122° |
| 2026-04-28 09:40 | 49.95307 | 6.14191 | 37101 ft | 461 kts | 122° |
| 2026-04-28 09:40 | 49.92067 | 6.22809 | 37104 ft | 462 kts | 122° |
| 2026-04-28 09:41 | 49.88821 | 6.31424 | 37102 ft | 462 kts | 122° |
| 2026-04-28 09:41 | 49.85594 | 6.39959 | 37075 ft | 462 kts | 122° |
| 2026-04-28 09:42 | 49.82328 | 6.48566 | 37095 ft | 463 kts | 122° |
| 2026-04-28 09:42 | 49.79059 | 6.57152 | 37079 ft | 463 kts | 122° |
| 2026-04-28 09:43 | 49.75777 | 6.65742 | 37073 ft | 463 kts | 123° |
| 2026-04-28 09:43 | 49.72486 | 6.74330 | 37082 ft | 464 kts | 123° |
| 2026-04-28 09:44 | 49.69186 | 6.82910 | 37074 ft | 465 kts | 123° |
| 2026-04-28 09:44 | 49.65894 | 6.91444 | 37087 ft | 466 kts | 123° |
| 2026-04-28 09:45 | 49.62569 | 7.00035 | 37089 ft | 466 kts | 123° |
| 2026-04-28 09:45 | 49.59231 | 7.08632 | 37106 ft | 467 kts | 123° |
| 2026-04-28 09:46 | 49.55886 | 7.17216 | 37098 ft | 467 kts | 123° |
| 2026-04-28 09:46 | 49.52532 | 7.25799 | 37098 ft | 468 kts | 123° |
| 2026-04-28 09:47 | 49.49168 | 7.34377 | 37098 ft | 468 kts | 124° |
| 2026-04-28 09:47 | 49.45820 | 7.42886 | 37101 ft | 468 kts | 124° |
| 2026-04-28 09:48 | 49.42436 | 7.51461 | 37104 ft | 469 kts | 124° |
| 2026-04-28 09:48 | 49.39044 | 7.60028 | 37098 ft | 469 kts | 124° |
| 2026-04-28 09:49 | 49.35643 | 7.68588 | 37104 ft | 470 kts | 124° |
| 2026-04-28 09:49 | 49.32235 | 7.77138 | 37101 ft | 470 kts | 124° |
| 2026-04-28 09:50 | 49.28817 | 7.85687 | 37105 ft | 471 kts | 124° |
| 2026-04-28 09:50 | 49.25391 | 7.94230 | 37102 ft | 471 kts | 124° |
| 2026-04-28 09:51 | 49.21955 | 8.02767 | 37084 ft | 471 kts | 125° |
| 2026-04-28 09:51 | 49.18513 | 8.11293 | 37093 ft | 471 kts | 125° |
| 2026-04-28 09:52 | 49.15642 | 8.18383 | 37102 ft | 472 kts | 125° |
| 2026-04-28 09:52 | 49.12175 | 8.26922 | 37091 ft | 473 kts | 125° |
| 2026-04-28 09:53 | 49.08693 | 8.35468 | 37092 ft | 474 kts | 125° |
| 2026-04-28 09:53 | 49.05199 | 8.44021 | 37094 ft | 475 kts | 125° |
| 2026-04-28 09:54 | 49.01696 | 8.52571 | 37096 ft | 476 kts | 125° |
| 2026-04-28 09:54 | 48.97672 | 8.60481 | 37077 ft | 468 kts | 141° |
| 2026-04-28 09:55 | 48.92663 | 8.66627 | 37078 ft | 465 kts | 147° |
| 2026-04-28 09:55 | 48.87550 | 8.72652 | 37077 ft | 466 kts | 147° |
| 2026-04-28 09:56 | 48.82448 | 8.78727 | 37071 ft | 467 kts | 146° |
| 2026-04-28 09:56 | 48.77344 | 8.84847 | 37089 ft | 467 kts | 146° |
| 2026-04-28 09:57 | 48.72231 | 8.90975 | 37084 ft | 468 kts | 146° |
| 2026-04-28 09:57 | 48.67110 | 8.97095 | 37093 ft | 468 kts | 146° |
| 2026-04-28 09:58 | 48.62032 | 9.03144 | 37098 ft | 468 kts | 146° |
| 2026-04-28 09:58 | 48.56908 | 9.09231 | 37097 ft | 468 kts | 146° |
| 2026-04-28 09:59 | 48.51791 | 9.15293 | 37099 ft | 467 kts | 146° |
| 2026-04-28 09:59 | 48.46672 | 9.21343 | 37077 ft | 467 kts | 146° |
| 2026-04-28 10:00 | 48.41559 | 9.27368 | 37075 ft | 465 kts | 146° |
| 2026-04-28 10:00 | 48.36461 | 9.33362 | 37081 ft | 465 kts | 146° |
| 2026-04-28 10:01 | 48.31362 | 9.39342 | 37083 ft | 465 kts | 146° |
| 2026-04-28 10:01 | 48.26291 | 9.45275 | 37057 ft | 464 kts | 147° |
| 2026-04-28 10:02 | 48.21218 | 9.51366 | 37086 ft | 464 kts | 145° |
| 2026-04-28 10:02 | 48.16268 | 9.57503 | 37094 ft | 464 kts | 145° |
| 2026-04-28 10:03 | 48.11284 | 9.63664 | 37099 ft | 464 kts | 145° |
| 2026-04-28 10:03 | 48.06291 | 9.69789 | 37091 ft | 464 kts | 145° |
| 2026-04-28 10:04 | 48.01288 | 9.75897 | 37078 ft | 464 kts | 145° |
| 2026-04-28 10:04 | 47.96281 | 9.81991 | 37084 ft | 464 kts | 145° |
| 2026-04-28 10:05 | 47.91267 | 9.88079 | 37087 ft | 464 kts | 146° |
| 2026-04-28 10:05 | 47.86253 | 9.94153 | 37092 ft | 465 kts | 146° |
| 2026-04-28 10:06 | 47.81225 | 10.00228 | 37073 ft | 466 kts | 146° |
| 2026-04-28 10:06 | 47.76193 | 10.06293 | 37067 ft | 466 kts | 146° |
| 2026-04-28 10:07 | 47.71154 | 10.12351 | 37073 ft | 466 kts | 146° |
| 2026-04-28 10:07 | 47.66134 | 10.18371 | 37071 ft | 467 kts | 146° |
| 2026-04-28 10:08 | 47.61077 | 10.24422 | 37069 ft | 467 kts | 146° |
| 2026-04-28 10:08 | 47.56015 | 10.30454 | 37082 ft | 467 kts | 147° |
| 2026-04-28 10:09 | 47.50693 | 10.35896 | 37075 ft | 463 kts | 152° |
| 2026-04-28 10:09 | 47.45264 | 10.41020 | 37066 ft | 463 kts | 152° |
| 2026-04-28 10:10 | 47.39854 | 10.46204 | 37063 ft | 463 kts | 152° |
| 2026-04-28 10:10 | 47.34457 | 10.51435 | 37069 ft | 463 kts | 151° |
| 2026-04-28 10:11 | 47.29078 | 10.56637 | 37075 ft | 462 kts | 151° |
| 2026-04-28 10:11 | 47.23759 | 10.62024 | 37082 ft | 466 kts | 148° |
| 2026-04-28 10:12 | 47.18503 | 10.67617 | 37081 ft | 466 kts | 148° |
| 2026-04-28 10:12 | 47.13249 | 10.73174 | 37103 ft | 463 kts | 149° |
| 2026-04-28 10:13 | 47.08046 | 10.78615 | 37079 ft | 461 kts | 149° |
| 2026-04-28 10:13 | 47.02834 | 10.84034 | 37143 ft | 460 kts | 148° |
| 2026-04-28 10:14 | 46.97589 | 10.89473 | 37188 ft | 465 kts | 149° |
| 2026-04-28 10:14 | 46.94930 | 10.92226 | 37076 ft | 471 kts | 148° |
| 2026-04-28 10:14 | 46.92250 | 10.95000 | 37155 ft | 472 kts | 148° |
| 2026-04-28 10:15 | 46.86865 | 11.00566 | 37115 ft | 474 kts | 148° |
| 2026-04-28 10:15 | 46.81549 | 11.06091 | 37112 ft | 465 kts | 146° |
| 2026-04-28 10:16 | 46.76800 | 11.12591 | 37125 ft | 471 kts | 137° |
| 2026-04-28 10:16 | 46.72205 | 11.19448 | 37098 ft | 474 kts | 137° |
| 2026-04-28 10:17 | 46.67597 | 11.26257 | 37064 ft | 476 kts | 138° |
| 2026-04-28 10:17 | 46.62917 | 11.33067 | 37038 ft | 474 kts | 138° |
| 2026-04-28 10:18 | 46.58263 | 11.39791 | 37075 ft | 471 kts | 138° |
| 2026-04-28 10:18 | 46.53592 | 11.46512 | 37057 ft | 472 kts | 138° |
| 2026-04-28 10:19 | 46.48923 | 11.53219 | 37066 ft | 472 kts | 138° |
| 2026-04-28 10:19 | 46.44240 | 11.59931 | 37069 ft | 474 kts | 138° |
| 2026-04-28 10:20 | 46.39538 | 11.66655 | 37097 ft | 475 kts | 138° |
| 2026-04-28 10:20 | 46.34830 | 11.73369 | 37087 ft | 475 kts | 138° |
| 2026-04-28 10:21 | 46.30146 | 11.80034 | 37094 ft | 475 kts | 138° |
| 2026-04-28 10:21 | 46.25433 | 11.86723 | 37089 ft | 474 kts | 138° |
| 2026-04-28 10:22 | 46.20727 | 11.93382 | 37090 ft | 473 kts | 138° |
| 2026-04-28 10:22 | 46.16022 | 12.00025 | 37095 ft | 472 kts | 138° |
| 2026-04-28 10:23 | 46.11321 | 12.06646 | 37084 ft | 471 kts | 139° |
| 2026-04-28 10:23 | 46.06657 | 12.13196 | 37094 ft | 471 kts | 139° |
| 2026-04-28 10:24 | 46.01961 | 12.19776 | 37086 ft | 471 kts | 139° |
| 2026-04-28 10:24 | 45.97259 | 12.26348 | 37077 ft | 471 kts | 139° |
| 2026-04-28 10:25 | 45.92552 | 12.32911 | 37077 ft | 471 kts | 139° |
| 2026-04-28 10:25 | 45.87839 | 12.39465 | 37069 ft | 471 kts | 139° |
| 2026-04-28 10:26 | 45.83157 | 12.45960 | 37077 ft | 471 kts | 139° |
| 2026-04-28 10:26 | 45.78447 | 12.52480 | 37074 ft | 471 kts | 139° |
| 2026-04-28 10:27 | 45.73708 | 12.59022 | 37068 ft | 471 kts | 139° |
| 2026-04-28 10:27 | 45.68985 | 12.65527 | 37064 ft | 471 kts | 139° |
| 2026-04-28 10:28 | 45.64253 | 12.72031 | 37058 ft | 471 kts | 139° |
| 2026-04-28 10:29 | 45.57545 | 12.82259 | 37065 ft | 473 kts | 133° |
| 2026-04-28 10:29 | 45.53231 | 12.89359 | 37061 ft | 472 kts | 133° |
| 2026-04-28 10:30 | 45.48894 | 12.96386 | 37069 ft | 472 kts | 134° |
| 2026-04-28 10:30 | 45.44525 | 13.03388 | 37067 ft | 472 kts | 134° |
| 2026-04-28 10:31 | 45.40157 | 13.10370 | 37056 ft | 472 kts | 134° |
| 2026-04-28 10:31 | 45.35818 | 13.17293 | 37066 ft | 471 kts | 134° |
| 2026-04-28 10:32 | 45.31441 | 13.24231 | 37067 ft | 471 kts | 136° |
| 2026-04-28 10:32 | 45.26523 | 13.30296 | 37073 ft | 467 kts | 144° |
| 2026-04-28 10:33 | 45.21391 | 13.35972 | 37069 ft | 467 kts | 145° |
| 2026-04-28 10:33 | 45.16275 | 13.41664 | 37052 ft | 468 kts | 144° |
| 2026-04-28 10:34 | 45.11178 | 13.47404 | 37066 ft | 468 kts | 144° |
| 2026-04-28 10:34 | 45.06091 | 13.53150 | 37064 ft | 468 kts | 144° |
| 2026-04-28 10:35 | 45.00996 | 13.58896 | 37066 ft | 468 kts | 144° |
| 2026-04-28 10:35 | 44.95898 | 13.64628 | 37072 ft | 468 kts | 144° |
| 2026-04-28 10:36 | 44.90795 | 13.70351 | 37071 ft | 468 kts | 144° |
| 2026-04-28 10:36 | 44.85691 | 13.76060 | 37076 ft | 468 kts | 144° |
| 2026-04-28 10:37 | 44.80616 | 13.81724 | 37075 ft | 468 kts | 144° |
| 2026-04-28 10:37 | 44.75497 | 13.87424 | 37074 ft | 468 kts | 144° |
| 2026-04-28 10:38 | 44.70383 | 13.93106 | 37064 ft | 468 kts | 144° |
| 2026-04-28 10:38 | 44.65275 | 13.98768 | 37066 ft | 468 kts | 144° |
| 2026-04-28 10:39 | 44.61023 | 14.03471 | 37072 ft | 467 kts | 144° |
| 2026-04-28 10:39 | 44.55908 | 14.09117 | 37068 ft | 467 kts | 144° |
| 2026-04-28 10:40 | 44.50797 | 14.14746 | 37079 ft | 467 kts | 144° |
| 2026-04-28 10:40 | 44.45678 | 14.20371 | 37064 ft | 466 kts | 144° |
| 2026-04-28 10:41 | 44.40569 | 14.25974 | 37070 ft | 466 kts | 144° |
| 2026-04-28 10:41 | 44.35534 | 14.31588 | 37073 ft | 467 kts | 142° |
| 2026-04-28 10:42 | 44.30706 | 14.37662 | 37067 ft | 467 kts | 140° |
| 2026-04-28 10:42 | 44.25938 | 14.43842 | 37057 ft | 467 kts | 139° |
| 2026-04-28 10:43 | 44.21161 | 14.49977 | 37066 ft | 466 kts | 140° |
| 2026-04-28 10:43 | 44.16366 | 14.56069 | 37071 ft | 466 kts | 140° |
| 2026-04-28 10:44 | 44.11559 | 14.62141 | 37066 ft | 466 kts | 140° |
| 2026-04-28 10:44 | 44.06777 | 14.68166 | 37070 ft | 466 kts | 140° |
| 2026-04-28 10:45 | 44.01963 | 14.74219 | 37057 ft | 466 kts | 140° |
| 2026-04-28 10:45 | 43.97152 | 14.80256 | 37065 ft | 466 kts | 140° |
| 2026-04-28 10:46 | 43.92342 | 14.86278 | 37069 ft | 466 kts | 140° |
| 2026-04-28 10:46 | 43.87526 | 14.92295 | 37073 ft | 466 kts | 140° |
| 2026-04-28 10:47 | 43.82707 | 14.98300 | 37069 ft | 466 kts | 140° |
| 2026-04-28 10:47 | 43.77878 | 15.04306 | 37071 ft | 466 kts | 140° |
| 2026-04-28 10:48 | 43.73043 | 15.10304 | 37067 ft | 467 kts | 140° |
| 2026-04-28 10:48 | 43.68204 | 15.16295 | 37071 ft | 467 kts | 140° |
| 2026-04-28 10:49 | 43.63396 | 15.22232 | 37072 ft | 467 kts | 140° |
| 2026-04-28 10:49 | 43.58551 | 15.28203 | 37067 ft | 467 kts | 140° |
| 2026-04-28 10:50 | 43.53705 | 15.34162 | 37071 ft | 467 kts | 140° |
| 2026-04-28 10:50 | 43.48854 | 15.40114 | 37069 ft | 466 kts | 140° |
| 2026-04-28 10:51 | 43.44006 | 15.46048 | 37070 ft | 466 kts | 140° |
| 2026-04-28 10:51 | 43.39157 | 15.51970 | 37068 ft | 466 kts | 140° |
| 2026-04-28 10:52 | 43.34304 | 15.57884 | 37055 ft | 465 kts | 140° |
| 2026-04-28 10:52 | 43.29486 | 15.63742 | 37071 ft | 465 kts | 140° |
| 2026-04-28 10:53 | 43.24642 | 15.69620 | 37072 ft | 465 kts | 140° |
| 2026-04-28 10:53 | 43.19794 | 15.75489 | 37071 ft | 464 kts | 141° |
| 2026-04-28 10:54 | 43.14949 | 15.81340 | 37067 ft | 464 kts | 141° |
| 2026-04-28 10:54 | 43.10099 | 15.87185 | 37067 ft | 464 kts | 140° |
| 2026-04-28 10:55 | 43.05285 | 15.92975 | 37067 ft | 463 kts | 141° |
| 2026-04-28 10:55 | 43.00440 | 15.98789 | 37071 ft | 463 kts | 141° |
| 2026-04-28 10:56 | 42.95585 | 16.04602 | 37069 ft | 463 kts | 141° |
| 2026-04-28 10:56 | 42.90738 | 16.10393 | 37075 ft | 463 kts | 141° |
| 2026-04-28 10:57 | 42.85890 | 16.16172 | 37068 ft | 463 kts | 140° |
| 2026-04-28 10:57 | 42.81044 | 16.21938 | 37077 ft | 462 kts | 141° |
| 2026-04-28 10:58 | 42.76215 | 16.27670 | 37074 ft | 462 kts | 141° |
| 2026-04-28 10:58 | 42.71364 | 16.33416 | 37073 ft | 462 kts | 141° |
| 2026-04-28 10:59 | 42.66509 | 16.39154 | 37076 ft | 462 kts | 141° |
| 2026-04-28 10:59 | 42.61648 | 16.44887 | 37067 ft | 462 kts | 141° |
| 2026-04-28 11:00 | 42.56821 | 16.50567 | 37073 ft | 462 kts | 141° |
| 2026-04-28 11:00 | 42.51963 | 16.56272 | 37077 ft | 462 kts | 141° |
| 2026-04-28 11:01 | 42.47092 | 16.61981 | 37076 ft | 462 kts | 141° |
| 2026-04-28 11:01 | 42.42216 | 16.67682 | 37075 ft | 462 kts | 141° |
| 2026-04-28 11:02 | 42.37346 | 16.73365 | 37076 ft | 462 kts | 141° |
| 2026-04-28 11:02 | 42.32509 | 16.78997 | 37075 ft | 462 kts | 141° |
| 2026-04-28 11:03 | 42.27642 | 16.84653 | 37074 ft | 461 kts | 141° |
| 2026-04-28 11:03 | 42.22762 | 16.90311 | 37077 ft | 461 kts | 141° |
| 2026-04-28 11:04 | 42.17890 | 16.95948 | 37078 ft | 461 kts | 141° |
| 2026-04-28 11:04 | 42.13018 | 17.01575 | 37072 ft | 461 kts | 141° |
| 2026-04-28 11:05 | 42.08147 | 17.07188 | 37086 ft | 460 kts | 141° |
| 2026-04-28 11:05 | 42.03276 | 17.12788 | 37078 ft | 460 kts | 141° |
| 2026-04-28 11:06 | 41.98436 | 17.18345 | 37075 ft | 460 kts | 141° |
| 2026-04-28 11:06 | 41.93516 | 17.23870 | 37069 ft | 459 kts | 146° |
| 2026-04-28 11:07 | 41.87918 | 17.27837 | 37090 ft | 454 kts | 159° |
| 2026-04-28 11:07 | 41.82097 | 17.31137 | 37078 ft | 454 kts | 159° |
| 2026-04-28 11:08 | 41.76281 | 17.34461 | 37079 ft | 454 kts | 159° |
| 2026-04-28 11:08 | 41.70477 | 17.37824 | 37085 ft | 454 kts | 159° |
| 2026-04-28 11:09 | 41.64678 | 17.41197 | 37080 ft | 455 kts | 158° |
| 2026-04-28 11:09 | 41.58874 | 17.44567 | 37079 ft | 455 kts | 158° |
| 2026-04-28 11:10 | 41.53057 | 17.47936 | 37081 ft | 455 kts | 158° |
| 2026-04-28 11:10 | 41.47241 | 17.51298 | 37081 ft | 455 kts | 159° |
| 2026-04-28 11:11 | 41.41464 | 17.54630 | 37083 ft | 456 kts | 159° |
| 2026-04-28 11:11 | 41.35642 | 17.57982 | 37078 ft | 456 kts | 159° |
| 2026-04-28 11:12 | 41.29807 | 17.61335 | 37078 ft | 456 kts | 159° |
| 2026-04-28 11:12 | 41.23969 | 17.64684 | 37072 ft | 456 kts | 159° |
| 2026-04-28 11:13 | 41.18175 | 17.67998 | 37075 ft | 456 kts | 159° |
| 2026-04-28 11:13 | 41.12347 | 17.71322 | 37078 ft | 456 kts | 159° |
| 2026-04-28 11:14 | 41.06512 | 17.74644 | 36870 ft | 458 kts | 158° |
| 2026-04-28 11:14 | 41.03591 | 17.76306 | 36570 ft | 453 kts | 158° |
| 2026-04-28 11:14 | 41.00714 | 17.77941 | 36171 ft | 448 kts | 158° |
| 2026-04-28 11:14 | 40.97862 | 17.79562 | 35827 ft | 443 kts | 158° |
| 2026-04-28 11:15 | 40.95037 | 17.81164 | 35431 ft | 440 kts | 158° |
| 2026-04-28 11:15 | 40.92234 | 17.82752 | 35056 ft | 437 kts | 158° |
| 2026-04-28 11:15 | 40.89451 | 17.84328 | 34680 ft | 433 kts | 158° |
| 2026-04-28 11:15 | 40.86688 | 17.85890 | 34302 ft | 430 kts | 158° |
| 2026-04-28 11:16 | 40.83936 | 17.87446 | 33915 ft | 428 kts | 157° |
| 2026-04-28 11:16 | 40.81208 | 17.88986 | 33493 ft | 425 kts | 157° |
| 2026-04-28 11:16 | 40.78504 | 17.90511 | 33111 ft | 421 kts | 157° |
| 2026-04-28 11:16 | 40.75852 | 17.92006 | 32751 ft | 417 kts | 157° |
| 2026-04-28 11:17 | 40.73192 | 17.93505 | 32376 ft | 414 kts | 157° |
| 2026-04-28 11:17 | 40.70553 | 17.94991 | 32013 ft | 411 kts | 158° |
| 2026-04-28 11:17 | 40.67932 | 17.96464 | 31656 ft | 408 kts | 158° |
| 2026-04-28 11:17 | 40.65336 | 17.97922 | 31307 ft | 405 kts | 158° |
| 2026-04-28 11:18 | 40.62820 | 17.99565 | 30950 ft | 403 kts | 147° |
| 2026-04-28 11:18 | 40.60590 | 18.01797 | 30611 ft | 400 kts | 137° |
| 2026-04-28 11:18 | 40.58705 | 18.04471 | 30275 ft | 397 kts | 126° |
| 2026-04-28 11:18 | 40.57100 | 18.07365 | 29913 ft | 394 kts | 125° |
| 2026-04-28 11:19 | 40.55518 | 18.10295 | 29518 ft | 392 kts | 124° |
| 2026-04-28 11:19 | 40.53954 | 18.13204 | 29147 ft | 388 kts | 125° |
| 2026-04-28 11:19 | 40.52398 | 18.16086 | 28786 ft | 384 kts | 125° |
| 2026-04-28 11:19 | 40.50851 | 18.18933 | 28430 ft | 382 kts | 126° |
| 2026-04-28 11:20 | 40.49307 | 18.21758 | 28086 ft | 378 kts | 126° |
| 2026-04-28 11:20 | 40.47774 | 18.24551 | 27717 ft | 376 kts | 126° |
| 2026-04-28 11:20 | 40.46247 | 18.27325 | 27369 ft | 373 kts | 126° |
| 2026-04-28 11:20 | 40.44728 | 18.30080 | 27017 ft | 371 kts | 126° |
| 2026-04-28 11:21 | 40.43217 | 18.32816 | 26678 ft | 368 kts | 126° |
| 2026-04-28 11:21 | 40.41715 | 18.35533 | 26324 ft | 366 kts | 126° |
| 2026-04-28 11:21 | 40.40224 | 18.38228 | 26000 ft | 364 kts | 126° |
| 2026-04-28 11:21 | 40.38740 | 18.40908 | 25673 ft | 362 kts | 126° |
| 2026-04-28 11:22 | 40.37260 | 18.43579 | 25337 ft | 360 kts | 126° |
| 2026-04-28 11:22 | 40.35785 | 18.46237 | 24997 ft | 359 kts | 126° |
| 2026-04-28 11:22 | 40.34317 | 18.48882 | 24665 ft | 357 kts | 126° |
| 2026-04-28 11:22 | 40.32876 | 18.51475 | 24333 ft | 356 kts | 126° |
| 2026-04-28 11:23 | 40.31420 | 18.54093 | 24000 ft | 355 kts | 126° |
| 2026-04-28 11:23 | 40.29964 | 18.56709 | 23663 ft | 354 kts | 126° |
| 2026-04-28 11:23 | 40.28515 | 18.59312 | 23266 ft | 353 kts | 126° |
| 2026-04-28 11:23 | 40.27072 | 18.61901 | 22908 ft | 351 kts | 126° |
| 2026-04-28 11:24 | 40.25636 | 18.64475 | 22541 ft | 349 kts | 126° |
| 2026-04-28 11:24 | 40.24210 | 18.67029 | 22228 ft | 346 kts | 126° |
| 2026-04-28 11:24 | 40.22790 | 18.69568 | 21886 ft | 344 kts | 126° |
| 2026-04-28 11:24 | 40.21380 | 18.72091 | 21562 ft | 342 kts | 126° |
| 2026-04-28 11:25 | 40.19977 | 18.74598 | 21233 ft | 341 kts | 126° |
| 2026-04-28 11:25 | 40.19048 | 18.76256 | 21018 ft | 340 kts | 126° |
| 2026-04-28 11:25 | 40.17653 | 18.78746 | 20698 ft | 338 kts | 126° |
| 2026-04-28 11:25 | 40.16264 | 18.81222 | 20376 ft | 337 kts | 126° |
| 2026-04-28 11:26 | 40.14881 | 18.83686 | 20051 ft | 335 kts | 126° |
| 2026-04-28 11:26 | 40.13057 | 18.86934 | 19620 ft | 334 kts | 126° |
| 2026-04-28 11:26 | 40.12129 | 18.88585 | 19406 ft | 333 kts | 126° |
| 2026-04-28 11:26 | 40.10759 | 18.91019 | 19082 ft | 333 kts | 126° |
| 2026-04-28 11:27 | 40.09389 | 18.93455 | 18759 ft | 332 kts | 126° |
| 2026-04-28 11:27 | 40.08017 | 18.95890 | 18436 ft | 331 kts | 126° |
| 2026-04-28 11:27 | 40.06666 | 18.98284 | 18064 ft | 331 kts | 126° |
| 2026-04-28 11:27 | 40.05249 | 19.00641 | 17713 ft | 330 kts | 134° |
| 2026-04-28 11:28 | 40.03584 | 19.02694 | 17398 ft | 327 kts | 140° |
| 2026-04-28 11:28 | 40.01845 | 19.04601 | 17069 ft | 325 kts | 141° |
| 2026-04-28 11:28 | 40.00129 | 19.06439 | 16753 ft | 323 kts | 141° |
| 2026-04-28 11:28 | 39.98449 | 19.08248 | 16444 ft | 322 kts | 141° |
| 2026-04-28 11:29 | 39.96841 | 19.09997 | 16149 ft | 320 kts | 140° |
| 2026-04-28 11:29 | 39.95140 | 19.11864 | 15825 ft | 318 kts | 140° |
| 2026-04-28 11:29 | 39.93552 | 19.13619 | 15543 ft | 316 kts | 140° |
| 2026-04-28 11:29 | 39.91875 | 19.15480 | 15230 ft | 315 kts | 140° |
| 2026-04-28 11:30 | 39.90211 | 19.17331 | 14917 ft | 314 kts | 139° |
| 2026-04-28 11:30 | 39.86909 | 19.21007 | 14299 ft | 311 kts | 139° |
| 2026-04-28 11:30 | 39.85268 | 19.22835 | 13987 ft | 310 kts | 139° |
| 2026-04-28 11:31 | 39.83628 | 19.24660 | 13651 ft | 309 kts | 139° |
| 2026-04-28 11:31 | 39.81996 | 19.26475 | 13310 ft | 308 kts | 139° |
| 2026-04-28 11:31 | 39.80369 | 19.28284 | 12982 ft | 306 kts | 139° |
| 2026-04-28 11:31 | 39.78757 | 19.30076 | 12664 ft | 304 kts | 139° |
| 2026-04-28 11:32 | 39.77150 | 19.31859 | 12352 ft | 302 kts | 139° |
| 2026-04-28 11:32 | 39.75555 | 19.33629 | 12045 ft | 300 kts | 139° |
| 2026-04-28 11:32 | 39.73969 | 19.35389 | 11734 ft | 299 kts | 139° |
| 2026-04-28 11:32 | 39.72394 | 19.37136 | 11432 ft | 297 kts | 139° |
| 2026-04-28 11:33 | 39.70827 | 19.38871 | 11128 ft | 295 kts | 139° |
| 2026-04-28 11:33 | 39.69268 | 19.40597 | 10824 ft | 293 kts | 139° |
| 2026-04-28 11:33 | 39.67717 | 19.42312 | 10516 ft | 292 kts | 139° |
| 2026-04-28 11:33 | 39.66174 | 19.44023 | 10245 ft | 290 kts | 139° |
| 2026-04-28 11:34 | 39.64660 | 19.45708 | 10094 ft | 283 kts | 139° |
| 2026-04-28 11:34 | 39.63165 | 19.47371 | 9780 ft | 282 kts | 139° |
| 2026-04-28 11:34 | 39.61678 | 19.49025 | 9480 ft | 281 kts | 139° |
| 2026-04-28 11:34 | 39.60220 | 19.50646 | 9191 ft | 279 kts | 139° |
| 2026-04-28 11:35 | 39.58750 | 19.52279 | 8908 ft | 277 kts | 139° |
| 2026-04-28 11:35 | 39.57290 | 19.53900 | 8620 ft | 275 kts | 139° |
| 2026-04-28 11:35 | 39.55842 | 19.55506 | 8338 ft | 273 kts | 139° |
| 2026-04-28 11:35 | 39.54398 | 19.57108 | 8057 ft | 272 kts | 139° |
| 2026-04-28 11:36 | 39.52967 | 19.58694 | 7775 ft | 270 kts | 140° |
| 2026-04-28 11:36 | 39.51544 | 19.60270 | 7501 ft | 268 kts | 140° |
| 2026-04-28 11:36 | 39.50131 | 19.61834 | 7229 ft | 266 kts | 140° |
| 2026-04-28 11:36 | 39.48728 | 19.63386 | 6952 ft | 265 kts | 140° |
| 2026-04-28 11:37 | 39.47327 | 19.64936 | 6679 ft | 264 kts | 140° |
| 2026-04-28 11:37 | 39.45934 | 19.66477 | 6394 ft | 263 kts | 140° |
| 2026-04-28 11:37 | 39.44543 | 19.68013 | 6106 ft | 262 kts | 140° |
| 2026-04-28 11:37 | 39.43159 | 19.69541 | 5820 ft | 261 kts | 140° |
| 2026-04-28 11:38 | 39.41779 | 19.71063 | 5512 ft | 261 kts | 140° |
| 2026-04-28 11:38 | 39.40459 | 19.72645 | 5181 ft | 263 kts | 128° |
| 2026-04-28 11:38 | 39.39764 | 19.74802 | 4905 ft | 262 kts | 98° |
| 2026-04-28 11:38 | 39.39694 | 19.77147 | 4651 ft | 260 kts | 89° |
| 2026-04-28 11:39 | 39.39753 | 19.79447 | 4434 ft | 250 kts | 88° |
| 2026-04-28 11:39 | 39.39810 | 19.81647 | 4304 ft | 241 kts | 89° |
| 2026-04-28 11:39 | 39.39852 | 19.83760 | 4191 ft | 228 kts | 89° |
| 2026-04-28 11:39 | 39.39884 | 19.85742 | 4074 ft | 213 kts | 89° |
| 2026-04-28 11:40 | 39.39933 | 19.87601 | 3958 ft | 200 kts | 83° |
| 2026-04-28 11:40 | 39.40292 | 19.89306 | 3899 ft | 196 kts | 72° |
| 2026-04-28 11:40 | 39.40695 | 19.90991 | 3818 ft | 194 kts | 73° |
| 2026-04-28 11:40 | 39.41076 | 19.92638 | 3646 ft | 187 kts | 73° |
| 2026-04-28 11:41 | 39.41436 | 19.94209 | 3478 ft | 181 kts | 73° |
| 2026-04-28 11:41 | 39.41790 | 19.95748 | 3299 ft | 177 kts | 70° |
| 2026-04-28 11:41 | 39.42502 | 19.97012 | 3128 ft | 174 kts | 27° |
| 2026-04-28 11:41 | 39.43653 | 19.97266 | 2960 ft | 174 kts | 345° |
| 2026-04-28 11:42 | 39.44817 | 19.96841 | 2804 ft | 174 kts | 343° |
| 2026-04-28 11:42 | 39.45980 | 19.96416 | 2629 ft | 173 kts | 343° |
| 2026-04-28 11:42 | 39.47138 | 19.95990 | 2430 ft | 172 kts | 343° |
| 2026-04-28 11:42 | 39.48259 | 19.95574 | 2221 ft | 163 kts | 342° |
| 2026-04-28 11:43 | 39.49300 | 19.95185 | 2059 ft | 154 kts | 342° |
| 2026-04-28 11:43 | 39.50332 | 19.94799 | 1837 ft | 154 kts | 342° |
| 2026-04-28 11:43 | 39.51349 | 19.94420 | 1606 ft | 150 kts | 341° |
| 2026-04-28 11:43 | 39.52351 | 19.94045 | 1415 ft | 151 kts | 341° |
| 2026-04-28 11:44 | 39.53354 | 19.93663 | 1247 ft | 149 kts | 340° |
| 2026-04-28 11:44 | 39.54327 | 19.93184 | 1191 ft | 150 kts | 335° |
| 2026-04-28 11:44 | 39.55291 | 19.92661 | 995 ft | 150 kts | 336° |
| 2026-04-28 11:44 | 39.56272 | 19.92249 | 720 ft | 150 kts | 344° |
| 2026-04-28 11:45 | 39.57292 | 19.91947 | 510 ft | 151 kts | 350° |
| 2026-04-28 11:45 | 39.58318 | 19.91686 | 281 ft | 152 kts | 353° |
| 2026-04-28 11:45 | 39.59362 | 19.91427 | 46 ft | 153 kts | 351° |
| 2026-04-28 11:45 | 39.60317 | 19.91181 | 19 ft | 114 kts | 348° |
| 2026-04-28 11:46 | 39.60865 | 19.91040 | 19 ft | 46 kts | 349° |
| 2026-04-28 11:46 | 39.61023 | 19.91032 | 19 ft | 17 kts | 46° |
| 2026-04-28 11:46 | 39.61049 | 19.91116 | 18 ft | 7 kts | 126° |
| 2026-04-28 11:46 | 39.61003 | 19.91137 | 18 ft | 7 kts | 168° |
| 2026-04-28 11:47 | 39.60956 | 19.91150 | 18 ft | 7 kts | 168° |
| 2026-04-28 11:47 | 39.60909 | 19.91162 | 20 ft | 7 kts | 168° |
| 2026-04-28 11:47 | 39.60863 | 19.91174 | 17 ft | 7 kts | 168° |
| 2026-04-28 11:47 | 39.60819 | 19.91187 | 17 ft | 7 kts | 168° |
| 2026-04-28 11:48 | 39.60775 | 19.91198 | 19 ft | 7 kts | 168° |
| 2026-04-28 11:48 | 39.60725 | 19.91211 | 17 ft | 8 kts | 168° |
| 2026-04-28 11:48 | 39.60665 | 19.91227 | 17 ft | 10 kts | 169° |
| 2026-04-28 11:48 | 39.60617 | 19.91279 | 17 ft | 10 kts | 94° |
| 2026-04-28 11:49 | 39.60625 | 19.91340 | 18 ft | 4 kts | 79° |
| 2026-04-28 11:49 | 39.60629 | 19.91364 | 17 ft | 1 kts | 79° |
| 2026-04-28 11:49 | 39.60629 | 19.91367 | 17 ft | 0 kts | 79° |